Terminal Aerodrome Forecast
Issued by NWS

Home | Current Version | Previous Version | Text Only | Print | Product List | Glossary On
Versions: 1 2 3 4 5 6 7 8 9 10 11 12 13 14 15 16 17 18
000
FTUS43 KJKL 152300
TAFSME
TAF
KSME 152339Z 1600/1624 17005KT 6SM -SHRA OVC050
     FM160600 22006KT 6SM -RA BR OVC025
     FM160900 22008KT 4SM -DZ BR OVC012=

USA.gov is the U.S. government's official web portal to all federal, state and local government web resources and services.